Time;durP1;ratioP1;P1;durP2;ratioP2;P2;SDS_P1;SDS_P2;PMS_P1;PMS_P2;Temp;Humidity;BMP_temperature;BMP_pressure;BME280_temperature;BME280_humidity;BME280_pressure;Samples;Min_cycle;Max_cycle;Signal;HPM_P1;HPM_P2
2021/05/18 00:00:40;;;;;;;16.67;12.00;;;11.30;99.90;;;;;;5114431;28;20194;-68
2021/05/18 00:03:14;;;;;;;16.20;11.73;;;11.30;99.90;;;;;;5114434;28;20946;-68
2021/05/18 00:05:45;;;;;;;20.70;13.70;;;11.20;99.90;;;;;;5114003;28;20454;-68
2021/05/18 00:08:14;;;;;;;19.50;12.27;;;11.20;99.90;;;;;;5114109;28;20412;-68
2021/05/18 00:13:34;;;;;;;15.30;13.00;;;11.20;99.90;;;;;;5114374;28;20448;-68
2021/05/18 00:16:02;;;;;;;15.37;12.53;;;11.20;99.90;;;;;;5113845;28;20452;-68
2021/05/18 00:18:30;;;;;;;13.33;11.47;;;11.20;99.90;;;;;;5114109;28;21068;-68
2021/05/18 00:20:58;;;;;;;15.97;11.93;;;11.20;99.90;;;;;;5112741;28;20463;-68
2021/05/18 00:23:26;;;;;;;15.47;12.43;;;11.20;99.90;;;;;;5113867;28;20440;-69
2021/05/18 00:25:54;;;;;;;16.77;12.60;;;11.20;99.90;;;;;;5112584;28;20513;-68
2021/05/18 00:28:22;;;;;;;16.27;11.90;;;11.20;99.90;;;;;;5112470;28;20479;-68
2021/05/18 00:30:50;;;;;;;17.30;13.10;;;11.20;99.90;;;;;;5112930;28;20452;-68
2021/05/18 00:33:21;;;;;;;14.20;11.33;;;11.20;99.90;;;;;;5113568;28;20492;-68
2021/05/18 00:35:49;;;;;;;14.90;11.80;;;11.10;99.90;;;;;;5114049;28;20554;-68
2021/05/18 00:38:19;;;;;;;16.07;12.50;;;11.10;99.90;;;;;;5112561;28;20467;-68
2021/05/18 00:40:49;;;;;;;17.20;12.83;;;11.10;99.90;;;;;;5113729;28;20431;-68
2021/05/18 00:43:17;;;;;;;16.10;13.17;;;11.10;99.90;;;;;;5113738;28;20984;-68
2021/05/18 00:45:47;;;;;;;16.93;12.93;;;11.10;99.90;;;;;;5114599;28;20509;-68
2021/05/18 00:48:16;;;;;;;20.10;14.23;;;11.10;99.90;;;;;;5112330;28;20975;-68
2021/05/18 00:50:46;;;;;;;17.47;13.87;;;11.10;99.90;;;;;;5112330;28;20446;-68
2021/05/18 00:53:14;;;;;;;15.27;13.30;;;11.10;99.90;;;;;;5113604;28;20436;-68
2021/05/18 00:55:55;;;;;;;14.80;12.33;;;11.10;99.90;;;;;;5112208;28;20463;-68
2021/05/18 00:58:30;;;;;;;16.20;12.07;;;11.10;99.90;;;;;;5113789;28;20451;-68
2021/05/18 01:01:01;;;;;;;17.33;14.43;;;11.00;99.90;;;;;;5113564;28;20465;-68
2021/05/18 01:03:30;;;;;;;15.27;12.80;;;11.10;99.90;;;;;;5114085;28;20426;-68
2021/05/18 01:08:44;;;;;;;14.97;13.00;;;11.10;99.90;;;;;;5113720;28;20417;-68
2021/05/18 01:11:14;;;;;;;15.73;12.80;;;11.10;99.90;;;;;;5113383;28;20527;-68
2021/05/18 01:13:42;;;;;;;15.88;12.68;;;11.10;99.90;;;;;;5113461;28;20457;-68
2021/05/18 01:16:11;;;;;;;18.47;14.17;;;11.10;99.90;;;;;;5112076;28;20292;-68
2021/05/18 01:18:41;;;;;;;17.80;12.77;;;11.10;99.90;;;;;;5113925;28;20505;-68
2021/05/18 01:21:10;;;;;;;16.03;12.30;;;11.10;99.90;;;;;;5113541;28;20518;-68
2021/05/18 01:23:40;;;;;;;18.97;12.70;;;11.10;99.90;;;;;;5113242;28;20435;-68
2021/05/18 01:26:09;;;;;;;13.77;12.27;;;11.00;99.90;;;;;;5111962;28;20471;-68
2021/05/18 01:28:37;;;;;;;20.97;13.40;;;11.00;99.90;;;;;;5113241;28;20432;-68
2021/05/18 01:31:06;;;;;;;13.93;11.60;;;11.00;99.90;;;;;;5113200;28;21019;-68
2021/05/18 01:33:34;;;;;;;18.10;13.87;;;11.00;99.90;;;;;;5112010;28;20461;-68
2021/05/18 01:36:08;;;;;;;16.23;13.33;;;11.00;99.90;;;;;;5111815;28;20471;-68
2021/05/18 01:38:44;;;;;;;15.57;13.57;;;10.90;99.90;;;;;;5112116;28;20464;-68
2021/05/18 01:43:59;;;;;;;18.10;13.10;;;10.90;99.90;;;;;;5115693;28;20431;-68
2021/05/18 01:46:29;;;;;;;15.23;11.90;;;10.80;99.90;;;;;;5117094;28;20440;-68
2021/05/18 01:49:00;;;;;;;16.10;13.10;;;10.80;99.90;;;;;;5115486;28;20443;-68
2021/05/18 01:51:42;;;;;;;16.63;13.50;;;10.80;99.90;;;;;;5115734;28;20444;-68
2021/05/18 01:54:14;;;;;;;20.73;13.20;;;10.70;99.90;;;;;;5116592;28;20460;-68
2021/05/18 01:56:50;;;;;;;18.23;13.87;;;10.70;99.90;;;;;;5117181;28;20416;-68
2021/05/18 01:59:22;;;;;;;17.03;11.90;;;10.70;99.90;;;;;;5117197;28;20408;-68
2021/05/18 02:01:54;;;;;;;17.13;13.33;;;10.60;99.90;;;;;;5115683;28;20479;-68
2021/05/18 02:04:25;;;;;;;14.87;12.73;;;10.60;99.90;;;;;;5115494;28;20501;-68
2021/05/18 02:06:56;;;;;;;16.03;12.97;;;10.60;99.90;;;;;;5115188;28;20440;-68
2021/05/18 02:09:24;;;;;;;17.53;13.53;;;10.60;99.90;;;;;;5115307;28;20978;-68
2021/05/18 02:11:55;;;;;;;19.10;14.13;;;10.50;99.90;;;;;;5115085;28;20439;-68
2021/05/18 02:14:26;;;;;;;19.23;14.20;;;10.50;99.90;;;;;;5114893;28;20552;-68
2021/05/18 02:17:04;;;;;;;18.60;14.60;;;10.50;99.90;;;;;;5116185;28;20416;-68
2021/05/18 02:19:51;;;;;;;20.07;15.70;;;10.50;99.90;;;;;;5115052;28;20440;-68
2021/05/18 02:25:21;;;;;;;16.40;14.13;;;10.40;99.90;;;;;;5116208;28;20460;-68
2021/05/18 02:28:04;;;;;;;18.10;13.67;;;10.40;99.90;;;;;;5114801;28;20436;-68
2021/05/18 02:30:38;;;;;;;16.13;13.37;;;10.40;99.90;;;;;;5116288;28;20420;-68
2021/05/18 02:33:08;;;;;;;16.20;13.77;;;10.40;99.90;;;;;;5114747;28;20943;-68
2021/05/18 02:35:40;;;;;;;18.23;13.80;;;10.40;99.90;;;;;;5116174;28;20939;-68
2021/05/18 02:38:08;;;;;;;21.67;15.70;;;10.40;99.90;;;;;;5116009;28;20955;-68
2021/05/18 02:40:40;;;;;;;18.20;14.37;;;10.30;99.90;;;;;;5114654;28;20527;-68
2021/05/18 02:43:11;;;;;;;19.57;15.00;;;10.30;99.90;;;;;;5114733;28;20475;-68
2021/05/18 02:45:44;;;;;;;20.23;15.80;;;10.30;99.90;;;;;;5114382;28;20464;-68
2021/05/18 02:51:05;;;;;;;19.20;14.70;;;10.30;99.90;;;;;;5114391;28;20466;-68
2021/05/18 02:53:53;;;;;;;20.13;15.40;;;10.30;99.90;;;;;;5115704;28;20517;-68
2021/05/18 02:56:27;;;;;;;16.87;14.20;;;10.30;99.90;;;;;;5114483;28;20468;-68
2021/05/18 02:59:00;;;;;;;16.80;13.53;;;10.30;99.90;;;;;;5114994;28;20480;-68
2021/05/18 03:01:28;;;;;;;18.57;13.57;;;10.30;99.90;;;;;;5115492;28;20448;-68
2021/05/18 03:03:56;;;;;;;16.80;14.43;;;10.30;99.90;;;;;;5114055;28;20477;-68
2021/05/18 03:06:24;;;;;;;17.20;13.27;;;10.30;99.90;;;;;;5114499;28;20534;-68
2021/05/18 03:08:51;;;;;;;20.30;14.00;;;10.30;99.90;;;;;;5115765;28;20428;-68
2021/05/18 03:11:19;;;;;;;18.73;13.10;;;10.30;99.90;;;;;;5115179;28;20435;-68
2021/05/18 03:13:48;;;;;;;20.20;14.47;;;10.30;99.90;;;;;;5115345;28;20531;-68
2021/05/18 03:16:15;;;;;;;18.37;13.27;;;10.30;99.90;;;;;;5115651;28;20428;-68
2021/05/18 03:18:43;;;;;;;22.10;13.87;;;10.30;99.90;;;;;;5114981;28;20513;-68
2021/05/18 03:21:11;;;;;;;20.30;14.10;;;10.30;99.90;;;;;;5114991;28;20451;-68
2021/05/18 03:23:39;;;;;;;23.17;14.37;;;10.30;99.90;;;;;;5114954;28;20431;-68
2021/05/18 03:26:07;;;;;;;18.97;14.10;;;10.30;99.90;;;;;;5115047;28;20448;-68
2021/05/18 03:28:34;;;;;;;19.10;13.80;;;10.30;99.90;;;;;;5115335;28;20427;-68
2021/05/18 03:31:16;;;;;;;19.83;14.00;;;10.30;99.90;;;;;;5114771;28;20850;-68
2021/05/18 03:36:29;;;;;;;18.93;13.57;;;10.30;99.90;;;;;;5115045;28;20415;-68
2021/05/18 03:38:57;;;;;;;18.20;13.50;;;10.30;99.90;;;;;;5114634;28;20824;-68
2021/05/18 03:41:28;;;;;;;18.73;14.30;;;10.30;99.90;;;;;;5114998;28;20490;-68
2021/05/18 03:44:01;;;;;;;21.70;13.73;;;10.30;99.90;;;;;;5114849;28;20421;-68
2021/05/18 03:52:22;;;;;;;19.87;14.47;;;10.20;99.90;;;;;;5108182;28;20852;-68
2021/05/18 03:55:03;;;;;;;16.87;15.03;;;10.30;99.90;;;;;;5114308;28;20459;-68
2021/05/18 04:03:09;;;;;;;18.90;14.00;;;10.30;99.90;;;;;;5112956;28;20473;-68
2021/05/18 04:16:54;;;;;;;15.20;12.47;;;10.30;99.90;;;;;;5114403;28;20419;-68
2021/05/18 04:19:27;;;;;;;17.23;13.77;;;10.30;99.90;;;;;;5114536;28;20567;-68
2021/05/18 04:22:07;;;;;;;14.90;12.80;;;10.30;99.90;;;;;;5114152;28;20420;-68
2021/05/18 04:38:44;;;;;;;18.37;13.47;;;10.50;99.90;;;;;;5113720;28;20479;-68
2021/05/18 04:41:37;;;;;;;18.13;13.20;;;10.50;99.90;;;;;;5114409;28;20448;-68
2021/05/18 04:52:29;;;;;;;15.60;12.73;;;10.50;99.90;;;;;;5114130;28;20440;-68
2021/05/18 05:00:37;;;;;;;16.50;12.57;;;10.60;99.90;;;;;;5114195;28;20448;-68
2021/05/18 05:08:45;;;;;;;15.53;12.30;;;10.70;99.90;;;;;;5113598;28;20893;-68
2021/05/18 05:14:14;;;;;;;18.05;13.05;;;10.80;99.90;;;;;;5110964;28;20443;-68
2021/05/18 05:16:42;;;;;;;16.87;12.10;;;10.90;99.90;;;;;;5115897;28;20213;-68
2021/05/18 05:19:09;;;;;;;18.50;13.97;;;11.00;99.90;;;;;;5116074;28;20558;-68
2021/05/18 05:21:37;;;;;;;16.45;12.80;;;10.90;99.90;;;;;;5117097;28;20499;-68
2021/05/18 05:24:07;;;;;;;14.60;12.20;;;11.00;99.90;;;;;;5117165;28;20210;-68
2021/05/18 05:26:36;;;;;;;17.60;14.03;;;11.00;99.90;;;;;;5115976;28;20875;-68
2021/05/18 05:29:04;;;;;;;15.87;12.10;;;11.10;99.90;;;;;;5117215;28;20427;-68
2021/05/18 05:31:33;;;;;;;15.00;12.37;;;11.10;99.90;;;;;;5117152;28;20438;-68
2021/05/18 05:34:00;;;;;;;15.93;12.97;;;11.20;99.90;;;;;;5117239;28;20961;-68
2021/05/18 05:36:28;;;;;;;15.90;12.67;;;11.20;99.90;;;;;;5117286;28;20434;-68
2021/05/18 05:39:02;;;;;;;16.97;12.87;;;11.20;99.90;;;;;;5118096;28;20491;-68
2021/05/18 05:41:31;;;;;;;16.93;13.43;;;11.30;99.90;;;;;;5117345;28;20423;-68
2021/05/18 05:43:59;;;;;;;13.70;12.20;;;11.30;99.90;;;;;;5117132;28;20830;-68
2021/05/18 05:46:26;;;;;;;15.07;12.60;;;11.40;99.90;;;;;;5117161;28;20518;-68
2021/05/18 05:48:54;;;;;;;15.10;13.47;;;11.50;99.90;;;;;;5117549;28;20511;-68
2021/05/18 05:51:23;;;;;;;14.43;11.77;;;11.50;99.90;;;;;;5117052;27;20440;-68
2021/05/18 05:53:52;;;;;;;18.40;14.00;;;11.60;99.90;;;;;;5115362;28;20493;-68
2021/05/18 05:56:20;;;;;;;17.60;13.00;;;11.60;99.90;;;;;;5117200;28;20483;-68
2021/05/18 05:58:49;;;;;;;13.03;11.63;;;11.70;99.90;;;;;;5116544;28;20517;-68
2021/05/18 06:47:31;;;;;;;10.30;9.30;;;13.20;99.90;;;;;;4915870;29;20517;-75
2021/05/18 06:50:11;;;;;;;9.73;8.70;;;13.20;99.90;;;;;;4919293;29;20534;-75
2021/05/18 06:52:39;;;;;;;10.73;8.77;;;13.30;99.90;;;;;;4917775;29;20551;-75
2021/05/18 06:55:12;;;;;;;8.57;7.77;;;13.30;99.90;;;;;;4917724;29;20501;-75
2021/05/18 06:57:43;;;;;;;9.07;8.07;;;13.30;99.90;;;;;;4917538;29;20423;-75
2021/05/18 07:00:12;;;;;;;10.07;8.17;;;13.30;99.90;;;;;;4917338;29;20934;-75
2021/05/18 07:02:43;;;;;;;13.90;9.00;;;13.40;99.90;;;;;;4917450;29;20460;-75
2021/05/18 07:05:17;;;;;;;8.70;7.90;;;13.60;99.90;;;;;;4933068;29;20506;-75
2021/05/18 07:07:48;;;;;;;11.50;8.43;;;13.90;99.90;;;;;;4917325;29;20452;-75
2021/05/18 07:10:15;;;;;;;9.20;8.20;;;14.10;99.90;;;;;;4917652;29;20477;-75
2021/05/18 07:12:45;;;;;;;9.73;8.73;;;14.30;99.90;;;;;;4917378;29;20468;-75
2021/05/18 07:15:14;;;;;;;7.87;7.17;;;14.60;99.90;;;;;;4933204;29;20563;-75
2021/05/18 07:17:42;;;;;;;7.70;7.00;;;14.90;99.90;;;;;;4917211;29;20492;-75
2021/05/18 07:20:18;;;;;;;8.17;7.37;;;15.20;99.90;;;;;;4918611;29;21069;-75
2021/05/18 07:22:45;;;;;;;8.20;7.00;;;15.40;99.90;;;;;;4917010;29;20521;-75
2021/05/18 07:25:13;;;;;;;8.60;7.60;;;15.60;99.90;;;;;;4917004;29;20907;-75
2021/05/18 07:27:41;;;;;;;7.10;6.40;;;15.80;99.90;;;;;;4918141;29;20444;-75
2021/05/18 07:30:10;;;;;;;9.53;7.93;;;16.10;99.90;;;;;;4918221;29;20441;-75
2021/05/18 07:32:38;;;;;;;7.03;6.33;;;16.30;99.90;;;;;;4916917;29;20461;-75
2021/05/18 07:35:07;;;;;;;7.47;6.87;;;16.40;99.90;;;;;;4916816;29;20500;-75
2021/05/18 07:37:36;;;;;;;7.03;6.33;;;16.30;99.90;;;;;;4918284;29;20432;-75
2021/05/18 07:40:05;;;;;;;7.90;6.30;;;16.10;99.90;;;;;;4916003;29;20560;-75
2021/05/18 07:42:32;;;;;;;8.30;7.03;;;16.00;99.90;;;;;;4918219;29;21068;-75
2021/05/18 07:45:02;;;;;;;7.83;6.97;;;16.10;99.90;;;;;;4916638;29;20547;-76
2021/05/18 07:47:33;;;;;;;7.30;6.60;;;16.20;99.90;;;;;;4918496;29;20429;-76
2021/05/18 07:50:03;;;;;;;6.80;6.20;;;16.40;99.90;;;;;;4916834;29;20571;-75
2021/05/18 08:01:05;;;;;;;6.13;5.53;;;16.40;99.90;;;;;;4916253;29;21019;-75
2021/05/18 08:06:18;;;;;;;5.77;5.27;;;16.10;99.90;;;;;;4918233;29;20461;-75
2021/05/18 08:08:47;;;;;;;6.23;5.20;;;16.30;99.90;;;;;;4916368;29;20954;-75
2021/05/18 08:11:15;;;;;;;6.03;5.53;;;16.50;99.90;;;;;;4917440;29;20540;-75
2021/05/18 08:13:55;;;;;;;5.63;5.13;;;16.60;99.90;;;;;;4916118;29;20441;-76
2021/05/18 08:16:56;;;;;;;5.23;4.73;;;16.80;99.90;;;;;;4932072;29;20463;-76
2021/05/18 08:19:54;;;;;;;7.10;5.20;;;17.00;99.90;;;;;;4916297;29;20467;-76
2021/05/18 08:59:16;;;;;;;6.00;5.40;;;16.80;99.90;;;;;;4902100;29;20651;-76
2021/05/18 09:47:23;;;;;;;6.13;4.73;;;18.00;99.10;;;;;;4918855;29;20445;-75
2021/05/18 10:36:03;;;;;;;4.63;3.67;;;18.70;95.80;;;;;;4917887;29;20469;-75
2021/05/18 10:38:34;;;;;;;4.57;4.17;;;18.70;95.80;;;;;;4933682;29;20453;-76
2021/05/18 10:41:15;;;;;;;3.53;3.23;;;18.70;95.80;;;;;;4918994;29;20543;-76
2021/05/18 10:43:44;;;;;;;4.10;2.80;;;18.90;95.80;;;;;;4917981;29;20860;-76
2021/05/18 10:46:20;;;;;;;4.07;3.73;;;19.10;95.70;;;;;;4917669;29;20491;-76
2021/05/18 10:49:03;;;;;;;3.87;3.57;;;19.20;95.60;;;;;;4919154;29;20457;-75
2021/05/18 10:51:43;;;;;;;3.90;3.60;;;19.20;95.30;;;;;;4917594;29;20445;-75
2021/05/18 10:54:24;;;;;;;4.03;3.70;;;19.20;95.20;;;;;;4917573;29;20480;-76
2021/05/18 10:57:05;;;;;;;4.00;3.50;;;19.20;95.30;;;;;;4917450;29;20936;-76
2021/05/18 10:59:35;;;;;;;3.80;3.50;;;19.30;95.20;;;;;;4917438;29;20563;-75
2021/05/18 11:02:05;;;;;;;4.63;4.23;;;19.30;95.10;;;;;;4917379;29;20445;-75
2021/05/18 11:04:35;;;;;;;5.30;4.80;;;19.30;94.90;;;;;;4918732;29;20506;-76
2021/05/18 11:07:04;;;;;;;4.23;3.83;;;19.20;94.70;;;;;;4918770;29;20448;-75
2021/05/18 11:09:32;;;;;;;4.70;4.30;;;19.10;94.60;;;;;;4918236;29;20464;-76
2021/05/18 11:12:04;;;;;;;3.87;3.57;;;19.10;94.30;;;;;;4917161;29;20460;-75
2021/05/18 11:14:34;;;;;;;3.90;3.30;;;19.00;94.00;;;;;;4916145;29;20512;-75
2021/05/18 11:17:15;;;;;;;4.20;3.80;;;18.90;94.10;;;;;;4917040;29;20452;-76
2021/05/18 11:20:22;;;;;;;5.13;4.17;;;18.80;94.00;;;;;;4918483;29;20520;-76
2021/05/18 11:25:49;;;;;;;4.13;3.70;;;18.70;93.80;;;;;;4917849;29;20705;-75
2021/05/18 11:28:20;;;;;;;3.97;3.67;;;18.70;93.70;;;;;;4918313;29;20437;-75
2021/05/18 11:30:49;;;;;;;7.33;4.20;;;18.70;93.60;;;;;;4916815;29;20540;-75
2021/05/18 11:33:17;;;;;;;4.43;3.80;;;18.70;93.60;;;;;;4916943;29;20875;-75
2021/05/18 11:36:00;;;;;;;5.67;5.07;;;18.70;93.60;;;;;;4917892;29;20488;-75
2021/05/18 11:38:30;;;;;;;4.70;4.30;;;18.70;93.50;;;;;;4916835;29;20467;-76
2021/05/18 11:40:58;;;;;;;4.50;4.00;;;18.80;93.70;;;;;;4916698;29;20504;-75
2021/05/18 11:43:33;;;;;;;5.00;4.20;;;18.90;93.70;;;;;;4932477;29;20539;-75
2021/05/18 11:46:07;;;;;;;4.47;4.00;;;18.90;93.70;;;;;;4917812;29;20996;-76
2021/05/18 11:48:35;;;;;;;4.57;3.87;;;19.00;93.60;;;;;;4916688;29;20445;-75
2021/05/18 11:51:10;;;;;;;5.00;4.60;;;19.00;93.60;;;;;;4932386;29;20997;-76
2021/05/18 11:53:40;;;;;;;5.07;4.57;;;19.10;93.50;;;;;;4916413;29;20508;-75
2021/05/18 11:56:20;;;;;;;5.57;5.07;;;19.20;93.40;;;;;;4916400;29;20533;-75
2021/05/18 11:58:49;;;;;;;4.50;4.10;;;19.30;93.30;;;;;;4918396;29;20824;-76
2021/05/18 12:01:17;;;;;;;4.80;4.40;;;19.40;93.30;;;;;;4916519;29;20472;-75
2021/05/18 12:03:45;;;;;;;4.23;3.73;;;19.50;93.20;;;;;;4916361;29;20979;-75
2021/05/18 12:06:15;;;;;;;4.40;4.00;;;19.50;93.10;;;;;;4917571;29;20452;-75
2021/05/18 12:08:43;;;;;;;4.40;4.00;;;19.60;93.10;;;;;;4917287;29;20448;-75
2021/05/18 12:11:14;;;;;;;4.33;3.97;;;19.70;92.90;;;;;;4917658;29;20496;-75
2021/05/18 12:13:43;;;;;;;4.40;4.00;;;19.80;92.60;;;;;;4916200;29;20863;-75
2021/05/18 12:16:12;;;;;;;4.00;3.70;;;19.70;92.50;;;;;;4916651;29;20481;-75
2021/05/18 12:18:42;;;;;;;3.80;3.50;;;19.70;92.40;;;;;;4916449;29;20463;-75
2021/05/18 12:21:14;;;;;;;4.30;3.83;;;19.70;92.20;;;;;;4932044;29;20473;-75
2021/05/18 12:23:43;;;;;;;3.90;3.60;;;19.60;92.20;;;;;;4916138;29;20997;-75
2021/05/18 12:26:19;;;;;;;3.50;3.20;;;19.60;92.20;;;;;;4915836;29;20455;-76
2021/05/18 12:28:53;;;;;;;3.80;3.50;;;19.60;92.00;;;;;;4917202;29;20466;-75
2021/05/18 12:31:37;;;;;;;4.30;3.90;;;19.60;92.00;;;;;;4931973;29;20453;-75
2021/05/18 12:34:06;;;;;;;5.23;4.00;;;19.50;91.70;;;;;;4913987;29;20540;-75
2021/05/18 12:36:46;;;;;;;4.60;4.20;;;19.50;92.00;;;;;;4916288;29;20842;-75
2021/05/18 12:39:17;;;;;;;4.90;4.20;;;19.40;91.40;;;;;;4915336;29;20549;-75
2021/05/18 12:41:48;;;;;;;3.63;3.33;;;19.40;90.60;;;;;;4915837;29;20469;-75
2021/05/18 12:44:16;;;;;;;3.50;3.20;;;19.40;90.90;;;;;;4915912;29;20483;-75
2021/05/18 12:47:00;;;;;;;4.07;3.67;;;19.40;91.00;;;;;;4917657;29;20961;-75
2021/05/18 12:49:34;;;;;;;4.20;3.50;;;19.40;91.10;;;;;;4915830;29;20884;-75
2021/05/18 12:52:09;;;;;;;3.57;2.83;;;19.40;91.20;;;;;;4931961;29;20449;-75
2021/05/18 12:54:45;;;;;;;3.37;3.00;;;19.30;91.10;;;;;;4917139;29;20560;-76
2021/05/18 12:57:15;;;;;;;4.63;3.80;;;19.30;91.10;;;;;;4916692;29;20803;-76
2021/05/18 13:00:08;;;;;;;3.20;2.90;;;19.30;90.90;;;;;;4917291;29;20425;-76
2021/05/18 13:02:40;;;;;;;3.77;3.40;;;19.20;90.60;;;;;;4914844;29;20461;-75
2021/05/18 13:05:14;;;;;;;2.80;2.60;;;19.20;90.70;;;;;;4915662;29;20528;-75
2021/05/18 13:07:43;;;;;;;3.43;3.13;;;19.10;90.40;;;;;;4915727;29;20445;-76
2021/05/18 13:10:19;;;;;;;5.50;3.33;;;19.00;90.30;;;;;;4917172;29;20480;-76
2021/05/18 13:12:47;;;;;;;4.10;3.73;;;18.90;90.20;;;;;;4931490;29;20954;-76
2021/05/18 13:15:21;;;;;;;3.80;3.50;;;18.80;90.00;;;;;;4915537;29;20534;-76
2021/05/18 13:17:54;;;;;;;4.40;3.70;;;18.70;90.10;;;;;;4915532;29;20556;-76
2021/05/18 13:20:39;;;;;;;5.03;4.50;;;18.50;90.30;;;;;;4915436;29;20473;-76
2021/05/18 13:23:09;;;;;;;5.00;4.60;;;18.30;90.60;;;;;;4915540;29;20442;-76
2021/05/18 13:28:23;;;;;;;4.60;4.20;;;18.00;91.10;;;;;;4914458;29;20461;-76
2021/05/18 13:30:50;;;;;;;4.53;4.13;;;18.00;91.50;;;;;;4915501;29;20650;-76
2021/05/18 13:33:21;;;;;;;4.90;4.27;;;17.80;91.50;;;;;;4916724;29;20942;-76
2021/05/18 13:35:49;;;;;;;4.40;4.00;;;17.70;91.70;;;;;;4916625;29;20958;-76
2021/05/18 13:38:17;;;;;;;5.43;4.87;;;17.50;91.90;;;;;;4919348;29;20476;-76
2021/05/18 13:40:45;;;;;;;5.10;4.67;;;17.50;92.10;;;;;;4934634;29;20563;-75
2021/05/18 13:43:13;;;;;;;4.67;4.20;;;17.40;92.30;;;;;;4918927;29;20458;-75
2021/05/18 13:45:40;;;;;;;5.33;4.90;;;17.40;92.50;;;;;;4918710;29;20580;-76
2021/05/18 13:48:08;;;;;;;5.50;4.57;;;17.40;92.70;;;;;;4918791;29;20448;-76
2021/05/18 13:50:38;;;;;;;4.93;4.53;;;17.40;92.80;;;;;;4918720;29;20958;-76
2021/05/18 13:53:06;;;;;;;5.60;5.10;;;17.40;92.90;;;;;;4918698;29;20459;-76
2021/05/18 13:55:34;;;;;;;6.33;5.73;;;17.40;93.00;;;;;;4918711;29;20476;-76
2021/05/18 13:58:02;;;;;;;16.43;6.43;;;17.40;93.10;;;;;;4919724;29;20531;-76
2021/05/18 14:00:30;;;;;;;6.03;4.70;;;17.40;93.20;;;;;;4918717;29;20540;-76
2021/05/18 14:02:57;;;;;;;5.23;4.73;;;17.30;93.20;;;;;;4918590;29;20488;-76
2021/05/18 14:05:27;;;;;;;5.13;4.50;;;17.30;93.30;;;;;;4918395;29;20989;-75
2021/05/18 14:08:31;;;;;;;5.07;4.50;;;17.30;93.30;;;;;;4918588;29;20875;-75
2021/05/18 14:11:02;;;;;;;5.90;4.53;;;17.20;93.30;;;;;;4919601;29;20500;-76
2021/05/18 14:13:33;;;;;;;5.77;4.80;;;17.20;93.50;;;;;;4934218;29;20520;-76
2021/05/18 14:16:01;;;;;;;10.80;5.97;;;17.20;93.60;;;;;;4918404;29;21090;-75
2021/05/18 14:18:29;;;;;;;4.47;4.07;;;17.10;93.60;;;;;;4919468;29;20504;-76
2021/05/18 14:20:58;;;;;;;4.80;4.40;;;17.10;93.70;;;;;;4934097;29;20508;-76
2021/05/18 14:23:32;;;;;;;4.57;4.10;;;17.10;93.80;;;;;;4918072;29;20476;-76
2021/05/18 14:26:00;;;;;;;4.90;4.40;;;17.00;93.80;;;;;;4918249;29;20476;-75
2021/05/18 14:28:36;;;;;;;4.10;3.80;;;16.90;93.70;;;;;;4918113;29;20441;-75
2021/05/18 14:31:06;;;;;;;4.57;3.90;;;16.80;93.80;;;;;;4919315;29;20850;-76
2021/05/18 14:33:34;;;;;;;4.00;3.70;;;16.70;93.80;;;;;;4933839;29;20477;-76
2021/05/18 14:36:03;;;;;;;7.43;3.57;;;16.70;93.70;;;;;;4918099;29;20476;-76
2021/05/18 14:38:32;;;;;;;3.80;3.40;;;16.60;93.70;;;;;;4917919;29;20453;-76
2021/05/18 14:44:03;;;;;;;3.33;3.03;;;16.40;93.70;;;;;;4919155;29;20181;-76
2021/05/18 14:46:34;;;;;;;3.53;2.90;;;16.50;93.80;;;;;;4917864;29;20456;-76
2021/05/18 14:54:47;;;;;;;3.70;3.40;;;16.50;94.00;;;;;;4918889;29;20516;-76
2021/05/18 14:57:15;;;;;;;4.20;3.80;;;16.40;94.00;;;;;;4919259;29;20433;-74
2021/05/18 14:59:43;;;;;;;3.90;3.60;;;16.50;94.10;;;;;;4919028;29;20480;-75
2021/05/18 15:02:11;;;;;;;3.50;3.20;;;16.50;94.20;;;;;;4917458;29;20508;-76
2021/05/18 15:04:39;;;;;;;3.03;2.73;;;16.60;94.20;;;;;;4919113;29;20466;-76
2021/05/18 15:07:07;;;;;;;3.83;3.50;;;16.60;94.10;;;;;;4917571;29;20907;-76
2021/05/18 15:09:38;;;;;;;4.20;3.53;;;16.60;94.10;;;;;;4917416;29;20516;-76
2021/05/18 15:12:07;;;;;;;3.30;3.00;;;16.70;94.20;;;;;;4917264;29;20440;-76
2021/05/18 15:14:35;;;;;;;3.47;3.17;;;16.80;94.20;;;;;;4917271;29;20468;-76
2021/05/18 15:17:03;;;;;;;4.03;3.73;;;16.90;94.30;;;;;;4918962;29;20436;-76
2021/05/18 15:19:31;;;;;;;4.13;3.10;;;16.90;94.30;;;;;;4918740;29;20476;-76
2021/05/18 15:21:59;;;;;;;4.03;3.70;;;16.90;94.30;;;;;;4917084;29;20500;-76
2021/05/18 15:24:28;;;;;;;4.20;3.50;;;16.90;94.20;;;;;;4917341;29;20833;-76
2021/05/18 15:26:56;;;;;;;3.90;3.60;;;16.90;94.20;;;;;;4918908;29;20444;-76
2021/05/18 15:29:24;;;;;;;4.30;3.20;;;17.00;94.30;;;;;;4932829;29;20985;-76
2021/05/18 15:31:52;;;;;;;3.80;3.40;;;17.10;94.40;;;;;;4917165;29;20809;-76
2021/05/18 15:34:20;;;;;;;4.27;3.67;;;17.10;94.40;;;;;;4918114;29;20469;-76
2021/05/18 15:36:48;;;;;;;4.27;3.77;;;17.20;94.40;;;;;;4918266;29;20946;-76
2021/05/18 15:39:16;;;;;;;4.00;3.70;;;17.30;94.40;;;;;;4918050;29;20416;-76
2021/05/18 15:41:44;;;;;;;5.83;3.70;;;17.30;94.50;;;;;;4918221;29;20500;-76
2021/05/18 15:44:13;;;;;;;3.40;3.10;;;17.20;94.50;;;;;;4932723;29;20475;-76
2021/05/18 15:46:41;;;;;;;3.40;3.10;;;17.10;94.40;;;;;;4918226;29;20460;-76
2021/05/18 15:49:08;;;;;;;4.53;2.97;;;17.10;94.30;;;;;;4916821;29;20459;-76
2021/05/18 15:51:36;;;;;;;3.97;3.57;;;17.00;94.20;;;;;;4916935;29;20567;-75
2021/05/18 15:54:05;;;;;;;4.30;2.50;;;17.00;94.10;;;;;;4916515;29;20449;-76
2021/05/18 15:56:34;;;;;;;5.97;2.83;;;16.90;93.90;;;;;;4917435;29;20522;-77
2021/05/18 15:59:03;;;;;;;3.77;2.77;;;16.90;93.80;;;;;;4916545;29;20473;-77
2021/05/18 16:01:37;;;;;;;2.80;2.40;;;16.90;93.50;;;;;;4916369;29;20473;-77
2021/05/18 16:04:06;;;;;;;3.20;2.97;;;16.90;93.40;;;;;;4932160;29;20445;-77
2021/05/18 16:06:34;;;;;;;3.17;2.97;;;17.00;93.50;;;;;;4916328;29;20492;-77
2021/05/18 16:09:03;;;;;;;2.53;2.30;;;17.10;93.40;;;;;;4916300;29;20556;-77
2021/05/18 16:11:31;;;;;;;2.73;2.40;;;17.20;93.30;;;;;;4916186;29;20468;-77
2021/05/18 16:13:58;;;;;;;2.77;2.57;;;17.30;93.20;;;;;;4916252;29;20449;-77
2021/05/18 16:16:27;;;;;;;2.70;2.50;;;17.30;93.10;;;;;;4916235;29;20540;-77
2021/05/18 16:18:56;;;;;;;3.60;3.03;;;17.40;93.10;;;;;;4916214;29;20448;-77
2021/05/18 16:21:25;;;;;;;3.03;2.70;;;17.50;93.00;;;;;;4917127;29;20468;-77
2021/05/18 16:23:54;;;;;;;3.57;3.27;;;17.60;93.10;;;;;;4916125;29;20863;-77
2021/05/18 16:26:24;;;;;;;3.23;2.50;;;17.70;93.10;;;;;;4916176;29;20532;-77
2021/05/18 16:28:52;;;;;;;3.07;2.73;;;17.90;92.90;;;;;;4916460;29;20578;-77
2021/05/18 16:31:20;;;;;;;3.20;2.90;;;18.00;92.90;;;;;;4915620;29;20530;-77
2021/05/18 16:33:49;;;;;;;3.10;2.90;;;18.10;92.80;;;;;;4916847;29;20622;-77
2021/05/18 16:36:18;;;;;;;3.10;2.90;;;18.10;92.90;;;;;;4916318;29;20461;-77
2021/05/18 16:38:46;;;;;;;2.97;2.67;;;18.20;93.00;;;;;;4916024;29;20452;-77
2021/05/18 16:41:34;;;;;;;3.20;2.90;;;18.20;93.10;;;;;;4915872;29;21031;-77
2021/05/18 16:44:02;;;;;;;3.47;2.80;;;18.10;93.10;;;;;;4916140;29;20240;-77
2021/05/18 16:46:30;;;;;;;3.23;2.93;;;18.00;93.10;;;;;;4918652;29;20883;-77
2021/05/18 16:48:58;;;;;;;2.93;2.63;;;17.90;93.00;;;;;;4919014;29;20445;-78
2021/05/18 16:51:27;;;;;;;3.03;2.73;;;17.80;92.90;;;;;;4918793;29;20455;-77
2021/05/18 16:53:55;;;;;;;2.70;2.50;;;17.70;92.90;;;;;;4918589;29;20504;-77
2021/05/18 16:56:23;;;;;;;2.90;2.63;;;17.70;92.90;;;;;;4934652;29;20531;-78
2021/05/18 16:58:52;;;;;;;2.70;2.30;;;17.60;92.90;;;;;;4918614;29;20511;-77
2021/05/18 17:01:21;;;;;;;2.90;2.67;;;17.50;93.00;;;;;;4918336;29;20456;-77
2021/05/18 17:04:08;;;;;;;3.50;3.17;;;17.50;93.00;;;;;;4916271;29;20475;-77
2021/05/18 17:06:37;;;;;;;2.60;2.40;;;17.40;93.00;;;;;;4915965;29;20461;-77
2021/05/18 17:09:09;;;;;;;5.97;3.00;;;17.20;92.90;;;;;;4931631;29;20966;-77
2021/05/18 17:11:39;;;;;;;2.33;2.13;;;17.10;92.90;;;;;;4917351;29;20555;-77
2021/05/18 17:14:07;;;;;;;3.20;3.00;;;17.00;93.00;;;;;;4919514;29;20484;-77
2021/05/18 17:16:35;;;;;;;3.00;2.47;;;16.90;93.00;;;;;;4919353;29;20465;-77
2021/05/18 17:19:04;;;;;;;2.40;2.20;;;16.80;93.10;;;;;;4920634;29;20532;-77
2021/05/18 17:21:32;;;;;;;2.80;2.60;;;16.70;93.20;;;;;;4920499;29;20447;-77
2021/05/18 17:24:01;;;;;;;2.73;2.53;;;16.70;93.20;;;;;;4919171;29;20453;-77
2021/05/18 17:26:29;;;;;;;3.50;3.20;;;16.50;93.20;;;;;;4919222;29;20461;-77
2021/05/18 17:28:56;;;;;;;4.30;3.97;;;16.50;93.30;;;;;;4920512;29;20493;-78
2021/05/18 17:31:24;;;;;;;3.90;3.50;;;16.40;93.30;;;;;;4919433;29;20472;-77
2021/05/18 17:33:52;;;;;;;3.53;3.10;;;16.30;93.40;;;;;;4918021;29;20446;-76